map of TSE home
Great Circle Mapper logo
TSE - Airport
Location
City:  Astana, Aqmola, Kazakhstan
Name:Astana International Airport
ICAO / IATA:UACC / TSE

Details
Type:Airport (Aerodrome, Airfield)
Use:Public/Civil, International (customs port of entry)
Latitude:5101'21"N (51.022500)
Longitude:7127'58"E (71.466111)
Elevation:1165 ft (355 m)
Variation:9.75E (WMM2015 magnetic declination)
0.05 annual change
Runways:1
Longest:11483 × 148 ft (3500 × 45 m), paved

Time
Time Zone:UTC+6
Local Time:

Weather
METAR:UACC 100200Z 24002MPS 9999 SCT007 M24/M27 Q1035 R22/3/0060 NOSIG RMK QFE744/0992
TAF:UACC 092300Z 1000/1024 25006MPS 6000 SCT007 SCT100 TXM13/1009Z TNM24/1002Z
TEMPO 1000/1005 VRB02MPS 3000 IC BR SCT005
TEMPO 1014/1024 3000 BR SCT005

Related Locations
Nearby:
Farthest:PNT: 10894 mi / 17532 km
Puerto Natales [Teniente Julio Gallardo], MA, CL

Find:

   beyond  
but within

Other Information
Maps:
NOTAMs:
Links:
Sources:

  
flag of Kazakhstan
flag of Astana
  

Sectional Chart

Flight Planning
at skyvector.com

Satellite Image

Google Maps Satellite view

 

Copyright © 2004-2016 Karl L. Swartz. All rights reserved.
The Great Circle Mapper name and logo are trademarks of the Great Circle Mapper.
All other trademarks mentioned herein belong to their respective owners.
Please see credits for attibutions and further copyright information.

  Follow gcmap on Facebook Follow gcmap on Twitter Follow gcmap on Google+ GCmap on LinkedIn

hCard Microformat

Geo Microformat